Saturday, November 17, 2018, 2:19 AM EST
Back to Local

KDXR, Danbury Municipal Airport

Location: Danbury, CT, United States Lat: 41.367
Local Time: 2:19 AM EST ( 7:19 GMT) Lon: -73.483
Time Zone: US/Eastern Elev: 459 ft

Show me the last for .
Show Decoded

2018-11-17 01:53 METAR KDXR 170653Z AUTO 25006KT 10SM OVC047 03/M01 A2994 RMK AO2 SLP142
                 T00331011 =
2018-11-17 00:53 METAR KDXR 170553Z AUTO 24008KT 10SM SCT039 BKN047 03/M02 A2993 RMK AO2 SLP137
                 T00331017 10039 20028 53017 =
2018-11-16 23:53 METAR KDXR 170453Z AUTO 24011KT 10SM OVC046 03/M02 A2991 RMK AO2 SLP131
                 T00331017 400561006 =
2018-11-16 22:53 METAR KDXR 170353Z AUTO 25011KT 10SM BKN041 03/M02 A2989 RMK AO2 SLP124
                 T00331017 =
2018-11-16 21:53 METAR KDXR 170253Z 25008KT 10SM OVC036 03/M02 A2988 RMK AO2 SLP119 T00331017
                 53023 =
2018-11-16 20:53 METAR KDXR 170153Z 25011G17KT 10SM SCT046 04/M02 A2985 RMK AO2 SLP110 T00391017
                 =
2018-11-16 19:53 METAR KDXR 170053Z 26009KT 10SM OVC039 04/M01 A2983 RMK AO2 SLP103 T00391011 =
2018-11-16 18:53 METAR KDXR 162353Z 26010KT 10SM OVC038 04/M01 A2981 RMK AO2 SLP095 T00391011
                 10056 20022 51022 =
2018-11-16 17:53 METAR KDXR 162253Z 25006KT 10SM OVC036 04/M01 A2979 RMK AO2 SLP090 T00391011 =
2018-11-16 16:53 METAR KDXR 162153Z 25007KT 10SM OVC033 04/M01 A2976 RMK AO2 SLP081 T00391006 =
2018-11-16 16:12 METAR KDXR 162112Z 28010G24KT 10SM SCT028 OVC035 04/M01 A2974 RMK AO2 T00441011
                 =
2018-11-16 15:53 METAR KDXR 162053Z 26010G18KT 10SM OVC028 04/M01 A2974 RMK AO2 SLP073 T00441006
                 51023 =
2018-11-16 14:53 METAR KDXR 161953Z VRB04KT 10SM FEW039 SCT120 06/00 A2969 RMK AO2 SLP055
                 T00560000 =
2018-11-16 13:53 METAR KDXR 161853Z VRB04KT 10SM SCT014 03/00 A2967 RMK AO2 SLP050 T00330000 =
2018-11-16 12:53 METAR KDXR 161753Z 29009G14KT 10SM OVC013 02/M01 A2966 RMK AO2 SLP046 60014
                 T00221006 10033 21006 51022 =
2018-11-16 12:43 METAR KDXR 161743Z 29007G15KT 10SM OVC013 02/M01 A2966 RMK AO2 T00171006 =
2018-11-16 12:00 METAR KDXR 161700Z 29009KT 10SM SCT014 BKN028 02/M01 A2964 RMK AO2 T00221011 =
2018-11-16 11:53 METAR KDXR 161653Z 30009KT 10SM BKN014 02/M01 A2963 RMK AO2 SLP039 T00221006 =
2018-11-16 10:53 METAR KDXR 161553Z 32009G16KT 10SM SCT060 02/M01 A2963 RMK AO2 SNE43 SLP036
                 P0000 T00221011 =
2018-11-16 09:53 METAR KDXR 161453Z 33012G21KT 9SM SN BKN065 01/M02 A2960 RMK AO2 SLP025 P0001
                 60014 T00111022 51035 =
2018-11-16 09:09 METAR KDXR 161409Z 36011G19KT 4SM SN BR BKN040 OVC060 01/M02 A2958 RMK AO2 P0001
                 T00061017 $ =
2018-11-16 08:53 METAR KDXR 161353Z 35012G23KT 2 1/2SM SN BR FEW013 BKN031 OVC041 00/M02 A2958
                 RMK AO2 PK WND 34031/1317 PRESFR SLP019 P0002 T00001022 $ =
2018-11-16 08:44 METAR KDXR 161344Z 34016G29KT 2SM SN BR FEW013 BKN023 OVC042 00/M02 A2959 RMK
                 AO2 PK WND 34031/1317 P0002 T00001022 $ =
2018-11-16 08:34 METAR KDXR 161334Z 34019G29KT 1 1/4SM SN BR OVC014 00/M02 A2960 RMK AO2 PK WND
                 34031/1317 P0002 T00001017 $ =
2018-11-16 08:28 METAR KDXR 161328Z 33016G25KT 290V360 3/4SM SN BR VV010 00/M02 A2960 RMK AO2 PK
                 WND 34031/1317 P0002 T00001017 $ =
2018-11-16 08:18 METAR KDXR 161318Z 33019G31KT 1/2SM SN FZFG VV009 M01/M02 A2959 RMK AO2 PK WND
                 34031/1317 P0002 T10061017 $ =
2018-11-16 08:02 METAR KDXR 161302Z 33011G23KT 1/2SM SN FZFG VV011 M01/M01 A2958 RMK AO2 P0001
                 T10061011 $ =
2018-11-16 07:55 METAR KDXR 161255Z 32013G22KT 3/4SM SN BR FEW011 OVC015 00/M01 A2958 RMK AO2
                 P0000 T00001011 $ =
2018-11-16 07:53 METAR KDXR 161253Z 32014G26KT 1 1/4SM SN BR FEW011 OVC015 00/M01 A2957 RMK AO2
                 PK WND 32028/1241 SLP018 P0011 T00001011 $ =
2018-11-16 07:46 METAR KDXR 161246Z 31014G28KT 2SM SN BR FEW011 OVC017 01/M01 A2957 RMK AO2 PK
                 WND 32028/1241 P0010 T00061006 $ =
2018-11-16 07:35 METAR KDXR 161235Z 31009KT 2 1/2SM SN BR BKN011 OVC019 01/01 A2956 RMK AO2 P0008
                 T00110006 $ =
2018-11-16 07:27 METAR KDXR 161227Z 34011G18KT 1 3/4SM SN BR BKN013 OVC019 01/01 A2955 RMK AO2
                 P0005 T00110006 $ =
2018-11-16 07:19 METAR KDXR 161219Z 30011G18KT 3SM SN BR BKN011 OVC018 02/01 A2955 RMK AO2 PRESRR
                 P0001 T00170006 $ =
2018-11-16 07:11 METAR KDXR 161211Z 32010KT 4SM SN BR BKN009 OVC022 02/01 A2954 RMK AO2 PRESRR
                 P0000 T00170006 $ =
2018-11-16 06:53 METAR KDXR 161153Z 04010G20KT 3SM SN BR FEW009 BKN022 OVC032 01/01 A2949 RMK AO2
                 SLP991 P0004 60008 70070 T00110006 10011 21006 56039 $ =
2018-11-16 06:34 METAR KDXR 161134Z AUTO 04009KT 2SM SN BR SCT009 OVC016 01/01 A2950 RMK AO2
                 PRESFR P0003 T00110006 $ =
2018-11-16 06:30 METAR KDXR 161130Z AUTO 04008KT 2SM SN BR BKN009 OVC013 01/01 A2951 RMK AO2
                 P0003 T00110006 $ =
2018-11-16 06:17 METAR KDXR 161117Z AUTO 02008KT 2SM SN BR BKN010 OVC013 01/01 A2952 RMK AO2
                 P0002 T00110006 $ =
2018-11-16 06:05 METAR KDXR 161105Z AUTO 03012G17KT 2SM SN BR OVC008 01/00 A2952 RMK AO2 P0001
                 T00110000 $ =
2018-11-16 05:53 METAR KDXR 161053Z AUTO 04009G19KT 3SM SN BR OVC008 01/00 A2951 RMK AO2 CIG
                 006V011 SLP998 P0000 T00060000 $ =
2018-11-16 05:19 METAR KDXR 161019Z AUTO 06012KT 3SM SN BR OVC007 01/00 A2951 RMK AO2 P0000
                 T00060000 $ =
2018-11-16 04:53 METAR KDXR 160953Z AUTO 05011KT 2 1/2SM SN BR OVC007 01/00 A2954 RMK AO2 SLP006
                 P0000 T00060000 $ =
2018-11-16 04:20 METAR KDXR 160920Z AUTO 06011G22KT 2SM SN BR OVC007 01/00 A2957 RMK AO2 P0000
                 T00060000 $ =
2018-11-16 03:53 METAR KDXR 160853Z AUTO 06009KT 1 3/4SM SN BR OVC007 01/00 A2961 RMK AO2 SLP029
                 P0001 60004 T00060000 58038 $ =
2018-11-16 03:43 METAR KDXR 160843Z AUTO 06010KT 2SM SN BR OVC007 01/00 A2961 RMK AO2 PRESFR
                 P0001 T00060000 $ =
2018-11-16 03:33 METAR KDXR 160833Z AUTO 06011KT 1 3/4SM SN BR OVC007 01/00 A2963 RMK AO2 P0001
                 T00060000 $ =
2018-11-16 03:14 METAR KDXR 160814Z AUTO 07009KT 2SM SN BR OVC008 01/00 A2964 RMK AO2 CIG 005V009
                 PRESFR P0000 T00060000 $ =
2018-11-16 02:53 METAR KDXR 160753Z AUTO 06009KT 3SM SN BR OVC008 01/00 A2967 RMK AO2 SLP050
                 P0000 T00060000 $ =
2018-11-16 02:35 METAR KDXR 160735Z AUTO 06011KT 2 1/2SM SN BR OVC008 01/M01 A2968 RMK AO2 P0000
                 T00061006 $ =
2018-11-16 02:26 METAR KDXR 160726Z AUTO 07011G18KT 3SM SN BR OVC008 01/M01 A2969 RMK AO2 CIG
                 007V012 P0000 T00061006 $ =

Support USWX by starting your Amazon purchase here.